Hamilton, MT (59840)

9:42 AM MDT on March 23, 2017 (GMT -0600)
Hamilton West Side | | Change Station

Elev 3615 ft 46.25 °N, 114.18 °W | Updated 4 seconds ago

Partly Cloudy
Partly Cloudy
45.3 °F
Feels Like 45 °F
N
1.3
Wind Variable Wind from SSW
Gusts 2.0 mph

Today
High -- | Low -- °F
--% Chance of Precip.
Yesterday
High -- | Low -- °F
Precip. -- in
Pressure 30.04 in
Visibility 10.0 miles
Clouds Mostly Cloudy 5500 ft
Windchill 45 °F
Dew Point 31 °F
Humidity 57%
Rainfall 0.00 in
Snow Depth Not available.
7:33 AM 7:53 PM
Waning Crescent, 22% visible
METAR KMSO 231453Z 34005KT 10SM BKN055 04/M01 A3000 RMK AO2 SLP172 T00441006 51016
Pressure 30.04 in
Visibility 10.0 miles
Clouds Mostly Cloudy 5500 ft
Windchill 45 °F
Dew Point 31 °F
Humidity 57%
Rainfall 0.00 in
Snow Depth Not available.
7:33 AM 7:53 PM
Waning Crescent, 22% visible
METAR KMSO 231453Z 34005KT 10SM BKN055 04/M01 A3000 RMK AO2 SLP172 T00441006 51016

Get Severe Weather Alerts

Thanks for signing up!

Be on the lookout for a verification email in your inbox.

You'll start receiving the daily forecast at 8 AM.

×

10-Day Weather Forecast

Almanac

Astronomy

Mar. 23, 2017 Rise Set
Actual Time
Civil Twilight
Nautical Twilight
Astronomical Twilight
Moon
Length of Visible Light
Length of Day
Tomorrow will be .
, % of the Moon is Illuminated

Today's Extremes

State Highs State Lows

Community

WunderPhotos

Upload Photos

1,962,540 photos uploaded!

WunderBlog® & News

Nearby

Air Quality

  Air Quality AQ Index Pollutant
Not available.

Snow Depth

Station Depth Elevation

Earthquake Activity

City Distance Mag. Time & Date
Minimum magnitude displayed is 2.5.

Earthquake Activity

City Distance Mag. Time & Date
Minimum magnitude displayed is 2.5.

Coastal Water Temperatures

Place Temperature

Stations

Nearby Weather Stations

Station Location Temp. Windchill Dew Point Humidity Wind Precip. Elev Updated Type
                   

Watches & Warnings

There are currently no watches in effect.